createdAt,value
2022-12-12T00:01:27.287Z,7.60
2022-12-12T00:03:58.353Z,7.13
2022-12-12T00:06:29.839Z,6.30
2022-12-12T00:09:02.504Z,7.17
2022-12-12T00:11:33.863Z,7.83
2022-12-12T00:14:03.915Z,6.77
2022-12-12T00:16:33.899Z,5.60
2022-12-12T00:19:03.849Z,6.77
2022-12-12T00:21:34.153Z,6.03
2022-12-12T00:24:06.176Z,7.40
2022-12-12T00:26:37.168Z,5.60
2022-12-12T00:29:07.369Z,5.50
2022-12-12T00:31:37.089Z,7.03
2022-12-12T00:34:07.368Z,5.70
2022-12-12T00:36:37.063Z,7.80
2022-12-12T00:39:12.567Z,6.70
2022-12-12T00:41:45.661Z,6.00
2022-12-12T00:44:15.864Z,7.87
2022-12-12T00:46:45.767Z,6.43
2022-12-12T00:49:15.536Z,6.07
2022-12-12T00:51:46.961Z,7.13
2022-12-12T00:54:18.660Z,7.20
2022-12-12T00:56:48.415Z,6.53
2022-12-12T00:59:19.899Z,7.77
2022-12-12T01:01:49.925Z,6.83
2022-12-12T01:04:20.037Z,6.60
2022-12-12T01:06:50.256Z,6.80
2022-12-12T01:09:21.800Z,6.37
2022-12-12T01:11:52.385Z,6.73
2022-12-12T01:14:22.785Z,7.50
2022-12-12T01:16:52.826Z,7.90
2022-12-12T01:19:23.261Z,6.50
2022-12-12T01:21:53.085Z,6.93
2022-12-12T01:24:24.760Z,6.50
2022-12-12T01:26:56.060Z,7.07
2022-12-12T01:29:26.664Z,7.03
2022-12-12T01:31:57.500Z,7.33
2022-12-12T01:34:28.533Z,7.50
2022-12-12T01:36:59.523Z,6.07
2022-12-12T01:39:31.783Z,6.77
2022-12-12T01:42:01.609Z,6.77
2022-12-12T01:44:45.178Z,8.13
2022-12-12T01:47:16.225Z,6.93
2022-12-12T01:49:48.182Z,6.20
2022-12-12T01:52:22.403Z,8.23
2022-12-12T01:54:57.777Z,6.70
2022-12-12T01:57:31.243Z,6.10
2022-12-12T02:00:02.260Z,6.87
2022-12-12T02:02:32.502Z,7.33
2022-12-12T02:05:06.662Z,6.47
2022-12-12T02:07:36.536Z,6.97
2022-12-12T02:10:08.683Z,7.10
2022-12-12T02:12:38.464Z,7.50
2022-12-12T02:15:09.429Z,6.17
2022-12-12T02:18:03.578Z,6.67
2022-12-12T02:20:45.555Z,6.60
2022-12-12T02:23:36.168Z,7.10
2022-12-12T02:26:45.935Z,6.87
2022-12-12T02:30:00.328Z,6.10
2022-12-12T02:32:39.534Z,7.07
2022-12-12T02:35:17.710Z,5.93
2022-12-12T02:37:53.494Z,5.80
2022-12-12T02:40:27.092Z,6.30
2022-12-12T02:43:01.360Z,6.27
2022-12-12T02:45:38.604Z,5.43
2022-12-12T02:48:16.346Z,7.30
2022-12-12T02:50:50.148Z,6.23
2022-12-12T02:53:21.159Z,6.93
2022-12-12T02:55:52.858Z,6.47
2022-12-12T02:58:24.814Z,6.37
2022-12-12T03:01:11.596Z,5.90
2022-12-12T03:04:05.255Z,5.70
2022-12-12T03:07:14.349Z,7.43
2022-12-12T03:09:59.108Z,6.57
2022-12-12T03:12:36.773Z,6.93
2022-12-12T03:15:12.016Z,7.67
2022-12-12T03:17:46.268Z,5.47
2022-12-12T03:20:21.889Z,6.53
2022-12-12T03:22:56.057Z,6.57
2022-12-12T03:25:28.462Z,7.20
2022-12-12T03:28:04.195Z,6.23
2022-12-12T03:30:41.112Z,7.27
2022-12-12T03:33:19.125Z,6.10
2022-12-12T03:35:56.459Z,6.00
2022-12-12T03:38:30.868Z,6.20
2022-12-12T03:41:05.599Z,6.20
2022-12-12T03:43:39.592Z,6.03
2022-12-12T03:46:14.601Z,6.13
2022-12-12T03:48:47.505Z,7.07
2022-12-12T03:51:23.338Z,8.00
2022-12-12T03:53:57.835Z,8.00
2022-12-12T03:56:32.065Z,7.27
2022-12-12T03:59:06.603Z,7.53
2022-12-12T04:01:43.348Z,6.37
2022-12-12T04:04:18.487Z,6.17
2022-12-12T04:06:54.699Z,6.57
2022-12-12T04:09:42.178Z,7.40
2022-12-12T04:12:33.463Z,5.93
2022-12-12T04:15:21.608Z,6.27
2022-12-12T04:18:00.033Z,5.93
2022-12-12T04:20:52.160Z,6.17
2022-12-12T04:23:31.813Z,6.33
2022-12-12T04:26:26.979Z,5.47
2022-12-12T04:29:05.194Z,7.03
2022-12-12T04:31:39.034Z,6.88
2022-12-12T04:34:13.968Z,6.60
2022-12-12T04:36:47.508Z,6.07
2022-12-12T04:39:21.904Z,6.67
2022-12-12T04:41:54.103Z,6.57
2022-12-12T04:44:26.074Z,7.65
2022-12-12T04:46:57.913Z,7.17
2022-12-12T04:49:29.899Z,7.50
2022-12-12T04:52:03.815Z,7.15
2022-12-12T04:54:41.503Z,6.55
2022-12-12T04:57:15.569Z,6.23
2022-12-12T04:59:45.568Z,7.65
2022-12-12T05:02:23.579Z,7.05
2022-12-12T05:04:58.050Z,5.93
2022-12-12T05:07:41.036Z,7.32
2022-12-12T05:10:16.261Z,8.52
2022-12-12T05:12:47.958Z,7.70
2022-12-12T05:15:20.032Z,6.85
2022-12-12T05:17:52.848Z,8.05
2022-12-12T05:20:23.509Z,7.95
2022-12-12T05:22:54.553Z,7.70
2022-12-12T05:25:25.967Z,6.93
2022-12-12T05:27:56.426Z,8.07
2022-12-12T05:30:26.625Z,9.17
2022-12-12T05:32:56.634Z,8.02
2022-12-12T05:35:26.683Z,7.95
2022-12-12T05:37:57.023Z,8.48
2022-12-12T05:40:28.628Z,9.30
2022-12-12T05:42:58.728Z,9.95
2022-12-12T05:45:28.408Z,9.60
2022-12-12T05:47:58.244Z,10.07
2022-12-12T05:50:28.137Z,9.55
2022-12-12T05:52:58.475Z,8.95
2022-12-12T05:55:29.777Z,10.10
2022-12-12T05:58:00.142Z,9.50
2022-12-12T06:00:30.503Z,8.70
2022-12-12T06:03:00.408Z,9.60
2022-12-12T06:05:30.208Z,8.50
2022-12-12T06:08:00.043Z,9.10
2022-12-12T06:10:31.527Z,10.40
2022-12-12T06:13:03.051Z,10.30
2022-12-12T06:15:33.348Z,10.43
2022-12-12T06:18:03.511Z,12.75
2022-12-12T06:20:33.353Z,12.02
2022-12-12T06:23:03.577Z,11.73
2022-12-12T06:25:42.758Z,13.18
2022-12-12T06:28:24.040Z,12.30
2022-12-12T06:30:57.732Z,13.27
2022-12-12T06:33:29.029Z,12.95
2022-12-12T06:36:03.328Z,13.38
2022-12-12T06:38:34.333Z,12.30
2022-12-12T06:41:09.610Z,11.32
2022-12-12T06:43:41.715Z,12.40
2022-12-12T06:46:17.063Z,11.65
2022-12-12T06:48:48.634Z,13.38
2022-12-12T06:51:21.680Z,11.40
2022-12-12T06:53:51.875Z,11.02
2022-12-12T06:56:24.914Z,10.82
2022-12-12T06:58:55.559Z,9.95
2022-12-12T07:01:26.804Z,10.32
2022-12-12T07:03:56.745Z,10.95
2022-12-12T07:06:27.184Z,12.77
2022-12-12T07:08:58.803Z,11.27
2022-12-12T07:11:30.631Z,12.23
2022-12-12T07:14:04.529Z,12.18
2022-12-12T07:16:34.558Z,9.90
2022-12-12T07:19:06.974Z,10.30
2022-12-12T07:21:37.853Z,10.20
2022-12-12T07:24:08.632Z,9.30
2022-12-12T07:26:39.932Z,9.15
2022-12-12T07:29:09.614Z,8.63
2022-12-12T07:31:39.582Z,8.52
2022-12-12T07:34:10.142Z,10.02
2022-12-12T07:36:40.468Z,10.90
2022-12-12T07:39:17.361Z,10.00
2022-12-12T07:44:40.886Z,10.07
2022-12-12T07:47:11.628Z,9.27
2022-12-12T07:49:40.971Z,9.13
2022-12-12T07:52:10.752Z,10.15
2022-12-12T07:54:40.797Z,9.85
2022-12-12T07:57:12.581Z,10.57
2022-12-12T07:59:42.696Z,10.10
2022-12-12T08:02:12.604Z,9.73
2022-12-12T08:04:43.017Z,11.90
2022-12-12T08:07:13.698Z,13.30
2022-12-12T08:09:43.508Z,13.98
2022-12-12T08:12:14.634Z,16.85
2022-12-12T08:14:44.993Z,15.68
2022-12-12T08:17:14.721Z,15.70
2022-12-12T08:19:45.015Z,16.17
2022-12-12T08:22:15.483Z,15.07
2022-12-12T08:24:46.251Z,12.10
2022-12-12T08:27:18.561Z,11.50
2022-12-12T08:29:48.813Z,12.03
2022-12-12T08:32:18.792Z,11.97
2022-12-12T08:34:48.701Z,12.67
2022-12-12T08:37:18.689Z,11.03
2022-12-12T08:39:52.793Z,8.30
2022-12-12T08:42:27.461Z,8.80
2022-12-12T08:44:58.833Z,8.17
2022-12-12T08:47:29.824Z,7.60
2022-12-12T08:49:59.823Z,7.90
2022-12-12T08:52:30.739Z,8.03
2022-12-12T08:55:00.401Z,8.40
2022-12-12T08:57:32.146Z,8.70
2022-12-12T09:00:01.803Z,8.77
2022-12-12T09:02:32.131Z,8.50
2022-12-12T09:05:02.448Z,9.47
2022-12-12T09:07:32.100Z,8.40
2022-12-12T09:10:01.675Z,8.48
2022-12-12T09:12:35.661Z,9.33
2022-12-12T09:15:09.990Z,7.80
2022-12-12T09:17:41.101Z,9.00
2022-12-12T09:20:12.354Z,8.97
2022-12-12T09:22:42.374Z,9.30
2022-12-12T09:25:12.567Z,9.50
2022-12-12T09:27:44.588Z,8.32
2022-12-12T09:30:15.269Z,9.53
2022-12-12T09:32:45.377Z,9.80
2022-12-12T09:35:15.381Z,9.50
2022-12-12T09:37:46.090Z,9.23
2022-12-12T09:40:21.223Z,10.57
2022-12-12T09:42:54.012Z,7.87
2022-12-12T09:45:24.540Z,7.20
2022-12-12T09:47:59.034Z,9.20
2022-12-12T09:50:33.509Z,8.63
2022-12-12T09:53:07.939Z,7.90
2022-12-12T09:55:41.965Z,7.77
2022-12-12T09:58:22.100Z,7.80
2022-12-12T10:00:58.266Z,7.50
2022-12-12T10:03:36.113Z,6.30
2022-12-12T10:06:35.865Z,6.30
2022-12-12T10:09:08.488Z,5.93
2022-12-12T10:11:54.819Z,6.83
2022-12-12T10:14:34.914Z,6.33
2022-12-12T10:17:07.059Z,6.17
2022-12-12T10:19:40.416Z,5.30
2022-12-12T10:22:17.151Z,6.40
2022-12-12T10:24:50.507Z,6.50
2022-12-12T10:27:22.539Z,6.20
2022-12-12T10:29:53.455Z,6.60
2022-12-12T10:32:33.179Z,5.73
2022-12-12T10:35:19.986Z,6.83
2022-12-12T10:38:05.936Z,7.03
2022-12-12T10:40:43.412Z,6.20
2022-12-12T10:43:17.054Z,6.00
2022-12-12T10:46:03.039Z,6.23
2022-12-12T10:48:33.603Z,6.10
2022-12-12T10:51:07.055Z,6.00
2022-12-12T10:53:37.334Z,7.40
2022-12-12T10:56:09.856Z,5.20
2022-12-12T10:58:45.689Z,7.13
2022-12-12T11:01:38.374Z,5.63
2022-12-12T11:04:11.934Z,4.63
2022-12-12T11:06:48.537Z,5.00
2022-12-12T11:09:22.974Z,4.43
2022-12-12T11:12:00.783Z,4.20
2022-12-12T11:14:35.064Z,3.47
2022-12-12T11:17:23.688Z,3.40
2022-12-12T11:19:55.932Z,2.93
2022-12-12T11:22:26.428Z,3.80
2022-12-12T11:24:57.374Z,4.80
2022-12-12T11:27:30.477Z,3.57
2022-12-12T11:30:02.495Z,2.63
2022-12-12T11:32:42.624Z,2.30
2022-12-12T11:35:26.318Z,2.40
2022-12-12T11:37:59.679Z,2.80
2022-12-12T11:40:32.003Z,2.80
2022-12-12T11:43:21.445Z,3.63
2022-12-12T11:46:02.973Z,2.70
2022-12-12T11:48:59.501Z,3.70
2022-12-12T11:51:38.492Z,2.67
2022-12-12T11:54:14.048Z,2.87
2022-12-12T11:56:49.164Z,2.17
2022-12-12T11:59:44.599Z,3.07
2022-12-12T12:02:31.843Z,2.57
2022-12-12T12:05:12.247Z,2.07
2022-12-12T12:07:53.544Z,2.50
2022-12-12T12:10:32.240Z,2.67
2022-12-12T12:13:09.010Z,2.23
2022-12-12T12:15:42.871Z,2.70
2022-12-12T12:18:28.293Z,2.43
2022-12-12T12:21:21.538Z,3.03
2022-12-12T12:24:00.373Z,3.13
2022-12-12T12:26:38.623Z,2.53
2022-12-12T12:29:30.500Z,2.53
2022-12-12T12:32:07.748Z,2.50
2022-12-12T12:34:45.000Z,2.60
2022-12-12T12:37:28.460Z,3.07
2022-12-12T12:40:09.188Z,2.70
2022-12-12T12:42:52.069Z,2.03
2022-12-12T12:45:25.910Z,3.63
2022-12-12T12:47:59.226Z,2.20
2022-12-12T12:50:31.664Z,2.80
2022-12-12T12:53:07.368Z,2.20
2022-12-12T12:55:42.443Z,1.90
2022-12-12T12:58:21.432Z,2.67
2022-12-12T13:01:00.882Z,3.17
2022-12-12T13:03:39.852Z,3.57
2022-12-12T13:06:15.174Z,2.07
2022-12-12T13:08:54.246Z,2.10
2022-12-12T13:11:29.106Z,1.63
2022-12-12T13:14:01.280Z,3.20
2022-12-12T13:16:34.110Z,2.97
2022-12-12T13:19:07.469Z,2.20
2022-12-12T13:21:43.293Z,3.20
2022-12-12T13:24:18.910Z,2.57
2022-12-12T13:26:53.323Z,2.10
2022-12-12T13:29:36.808Z,3.00
2022-12-12T13:32:29.686Z,2.30
2022-12-12T13:35:01.914Z,2.77
2022-12-12T13:37:34.199Z,2.70
2022-12-12T13:40:08.077Z,2.57
2022-12-12T13:42:53.041Z,2.40
2022-12-12T13:45:43.344Z,2.00
2022-12-12T13:48:42.926Z,2.13
2022-12-12T13:51:40.268Z,2.27
2022-12-12T13:54:48.813Z,1.63
2022-12-12T13:57:28.818Z,2.00
2022-12-12T14:00:22.198Z,1.80
2022-12-12T14:03:02.615Z,1.87
2022-12-12T14:05:37.628Z,2.00
2022-12-12T14:08:20.420Z,2.80
2022-12-12T14:10:57.322Z,1.80
2022-12-12T14:13:45.086Z,1.80
2022-12-12T14:16:26.145Z,1.60
2022-12-12T14:19:02.238Z,1.30
2022-12-12T14:21:44.529Z,1.60
2022-12-12T14:24:47.908Z,1.63
2022-12-12T14:27:19.595Z,2.47
2022-12-12T14:29:51.074Z,2.17
2022-12-12T14:32:37.485Z,1.20
2022-12-12T14:35:26.503Z,1.87
2022-12-12T14:38:05.788Z,1.77
2022-12-12T14:40:36.739Z,1.80
2022-12-12T14:43:18.895Z,1.70
2022-12-12T14:45:59.916Z,1.27
2022-12-12T14:48:32.546Z,1.50
2022-12-12T14:51:09.572Z,1.90
2022-12-12T14:53:46.843Z,1.90
2022-12-12T14:56:18.919Z,1.50
2022-12-12T14:58:57.699Z,1.77
2022-12-12T15:01:46.589Z,1.80
2022-12-12T15:04:20.758Z,1.73
2022-12-12T15:06:54.224Z,2.07
2022-12-12T15:09:30.708Z,1.97
2022-12-12T15:12:16.469Z,2.03
2022-12-12T15:14:56.018Z,2.43
2022-12-12T15:17:30.004Z,2.43
2022-12-12T15:20:02.097Z,1.80
2022-12-12T15:22:34.433Z,2.60
2022-12-12T15:25:13.019Z,2.27
2022-12-12T15:27:49.295Z,2.00
2022-12-12T15:30:30.600Z,2.20
2022-12-12T15:33:02.108Z,1.90
2022-12-12T15:35:32.434Z,1.70
2022-12-12T15:38:03.578Z,1.73
2022-12-12T15:40:34.363Z,2.37
2022-12-12T15:43:07.378Z,1.87
2022-12-12T15:45:39.476Z,1.83
2022-12-12T15:48:17.394Z,2.43
2022-12-12T15:50:58.539Z,2.20
2022-12-12T15:53:32.013Z,2.70
2022-12-12T15:56:03.449Z,3.00
2022-12-12T15:58:37.854Z,2.90
2022-12-12T16:01:20.592Z,2.40
2022-12-12T16:04:00.828Z,1.93
2022-12-12T16:06:32.765Z,2.13
2022-12-12T16:09:07.928Z,2.20
2022-12-12T16:11:45.655Z,2.10
2022-12-12T16:14:39.534Z,2.20
2022-12-12T16:17:17.566Z,2.27
2022-12-12T16:19:55.768Z,2.20
2022-12-12T16:22:35.580Z,2.10
2022-12-12T16:25:16.555Z,2.40
2022-12-12T16:27:46.469Z,2.50
2022-12-12T16:30:17.175Z,3.20
2022-12-12T16:32:47.679Z,2.97
2022-12-12T16:35:20.133Z,3.13
2022-12-12T16:37:50.217Z,3.30
2022-12-12T16:40:21.534Z,2.20
2022-12-12T16:42:55.711Z,2.27
2022-12-12T16:45:25.784Z,2.17
2022-12-12T16:47:55.639Z,2.27
2022-12-12T16:50:27.023Z,1.97
2022-12-12T16:52:57.315Z,2.87
2022-12-12T16:55:27.516Z,2.47
2022-12-12T16:57:57.169Z,2.40
2022-12-12T17:00:26.890Z,2.77
2022-12-12T17:02:56.769Z,2.33
2022-12-12T17:05:29.018Z,2.60
2022-12-12T17:07:59.147Z,2.47
2022-12-12T17:10:32.060Z,2.10
2022-12-12T17:13:02.244Z,2.97
2022-12-12T17:15:33.793Z,2.93
2022-12-12T17:18:04.495Z,2.00
2022-12-12T17:20:37.885Z,2.40
2022-12-12T17:23:27.740Z,2.50
2022-12-12T17:26:04.000Z,2.93
2022-12-12T17:28:37.776Z,2.77
2022-12-12T17:31:13.195Z,2.77
2022-12-12T17:33:50.595Z,2.60
2022-12-12T17:36:25.713Z,3.33
2022-12-12T17:38:55.578Z,3.23
2022-12-12T17:41:30.047Z,2.80
2022-12-12T17:44:13.430Z,2.87
2022-12-12T17:46:47.240Z,2.90
2022-12-12T17:49:18.433Z,2.60
2022-12-12T17:51:56.746Z,2.03
2022-12-12T17:54:26.959Z,2.27
2022-12-12T17:56:57.279Z,2.40
2022-12-12T17:59:26.810Z,2.47
2022-12-12T18:02:00.898Z,2.37
2022-12-12T18:04:41.592Z,4.07
2022-12-12T18:07:15.987Z,3.10
2022-12-12T18:09:45.948Z,2.97
2022-12-12T18:12:15.963Z,2.50
2022-12-12T18:14:45.896Z,2.83
2022-12-12T18:17:16.234Z,3.40
2022-12-12T18:19:46.663Z,3.53
2022-12-12T18:22:17.720Z,3.43
2022-12-12T18:24:50.158Z,3.23
2022-12-12T18:27:19.714Z,3.90
2022-12-12T18:29:50.196Z,3.70
2022-12-12T18:32:19.982Z,4.23
2022-12-12T18:34:49.804Z,4.13
2022-12-12T18:37:20.828Z,4.47
2022-12-12T18:39:50.638Z,4.00
2022-12-12T18:42:21.742Z,4.20
2022-12-12T18:44:51.574Z,5.50
2022-12-12T18:47:28.821Z,6.83
2022-12-12T18:49:58.654Z,7.10
2022-12-12T18:52:29.708Z,8.33
2022-12-12T18:55:00.110Z,10.20
2022-12-12T18:57:29.897Z,10.43
2022-12-12T18:59:59.679Z,11.13
2022-12-12T19:02:29.257Z,9.50
2022-12-12T19:04:58.935Z,8.80
2022-12-12T19:07:31.383Z,10.60
2022-12-12T19:10:01.335Z,13.80
2022-12-12T19:12:30.992Z,15.73
2022-12-12T19:15:16.301Z,15.50
2022-12-12T19:17:47.362Z,17.93
2022-12-12T19:20:17.168Z,18.87
2022-12-12T19:22:48.923Z,21.33
2022-12-12T19:25:19.693Z,22.10
2022-12-12T19:27:49.618Z,23.63
2022-12-12T19:30:19.520Z,22.20
2022-12-12T19:32:49.938Z,25.93
2022-12-12T19:35:19.742Z,24.53
2022-12-12T19:37:51.498Z,21.93
2022-12-12T19:40:21.305Z,22.33
2022-12-12T19:42:51.358Z,24.07
2022-12-12T19:45:21.059Z,22.90
2022-12-12T19:47:52.204Z,19.97
2022-12-12T19:50:22.088Z,19.27
2022-12-12T19:52:52.861Z,21.93
2022-12-12T19:55:23.294Z,22.53
2022-12-12T19:57:53.159Z,20.73
2022-12-12T20:00:23.233Z,19.10
2022-12-12T20:02:53.035Z,19.77
2022-12-12T20:05:23.323Z,18.13
2022-12-12T20:07:54.882Z,17.37
2022-12-12T20:10:24.733Z,17.07
2022-12-12T20:12:58.478Z,16.83
2022-12-12T20:15:28.667Z,17.13
2022-12-12T20:18:05.059Z,16.87
2022-12-12T20:20:35.689Z,18.10
2022-12-12T20:23:08.288Z,18.27
2022-12-12T20:25:43.065Z,17.52
2022-12-12T20:28:12.743Z,20.53
2022-12-12T20:30:42.471Z,18.70
2022-12-12T20:33:12.144Z,19.93
2022-12-12T20:35:41.844Z,18.60
2022-12-12T20:38:13.075Z,19.70
2022-12-12T20:40:42.754Z,20.27
2022-12-12T20:43:12.359Z,22.13
2022-12-12T20:45:42.415Z,23.88
2022-12-12T20:48:12.712Z,24.95
2022-12-12T20:50:42.840Z,21.35
2022-12-12T20:53:14.114Z,21.42
2022-12-12T20:55:44.948Z,23.25
2022-12-12T20:58:14.698Z,20.23
2022-12-12T21:00:44.823Z,20.70
2022-12-12T21:03:15.922Z,20.20
2022-12-12T21:05:46.130Z,19.23
2022-12-12T21:08:17.854Z,23.42
2022-12-12T21:10:50.549Z,23.75
2022-12-12T21:13:20.469Z,23.73
2022-12-12T21:15:50.417Z,22.20
2022-12-12T21:18:21.240Z,22.02
2022-12-12T21:20:52.185Z,20.20
2022-12-12T21:23:26.004Z,19.50
2022-12-12T21:25:56.333Z,20.75
2022-12-12T21:28:28.325Z,21.65
2022-12-12T21:30:58.755Z,20.80
2022-12-12T21:33:29.424Z,21.90
2022-12-12T21:36:05.894Z,22.02
2022-12-12T21:38:36.968Z,20.73
2022-12-12T21:41:07.540Z,21.48
2022-12-12T21:43:37.330Z,20.25
2022-12-12T21:46:07.983Z,18.70
2022-12-12T21:48:37.656Z,18.08
2022-12-12T21:51:13.685Z,20.38
2022-12-12T21:53:45.409Z,17.88
2022-12-12T21:56:17.697Z,20.83
2022-12-12T21:58:48.210Z,18.73
2022-12-12T22:01:21.130Z,19.40
2022-12-12T22:03:51.258Z,25.15
2022-12-12T22:06:24.208Z,22.98
2022-12-12T22:08:56.353Z,22.08
2022-12-12T22:11:39.740Z,22.02
2022-12-12T22:14:11.919Z,19.00
2022-12-12T22:16:42.019Z,17.83
2022-12-12T22:19:14.557Z,19.05
2022-12-12T22:21:47.617Z,21.45
2022-12-12T22:24:19.304Z,23.13
2022-12-12T22:26:50.464Z,21.95
2022-12-12T22:29:21.725Z,20.08
2022-12-12T22:31:52.768Z,20.70
2022-12-12T22:34:24.099Z,20.60
2022-12-12T22:36:55.148Z,18.83
2022-12-12T22:39:28.605Z,17.70
2022-12-12T22:41:59.325Z,16.48
2022-12-12T22:44:28.770Z,16.15
2022-12-12T22:46:58.629Z,14.05
2022-12-12T22:49:29.300Z,12.50
2022-12-12T22:52:00.154Z,13.38
2022-12-12T22:54:32.086Z,12.27
2022-12-12T22:57:01.834Z,13.10
2022-12-12T22:59:31.980Z,12.40
2022-12-12T23:02:03.915Z,12.00
2022-12-12T23:04:33.791Z,12.52
2022-12-12T23:07:03.643Z,12.45
2022-12-12T23:09:35.595Z,12.55
2022-12-12T23:12:05.595Z,11.35
2022-12-12T23:14:35.169Z,11.52
2022-12-12T23:17:06.033Z,12.38
2022-12-12T23:19:35.778Z,11.10
2022-12-12T23:22:05.723Z,11.40
2022-12-12T23:24:37.790Z,10.13
2022-12-12T23:27:08.959Z,10.57
2022-12-12T23:29:39.299Z,10.60
2022-12-12T23:32:08.979Z,10.63
2022-12-12T23:34:38.803Z,12.43
2022-12-12T23:37:09.556Z,11.30
2022-12-12T23:39:41.712Z,12.32
2022-12-12T23:42:11.350Z,12.93
2022-12-12T23:44:41.164Z,11.43
2022-12-12T23:47:10.774Z,12.27
2022-12-12T23:49:40.730Z,10.70
2022-12-12T23:52:10.717Z,10.85
2022-12-12T23:54:42.424Z,12.55
2022-12-12T23:57:12.639Z,12.18
2022-12-12T23:59:42.334Z,10.60
